Time;durP1;ratioP1;P1;durP2;ratioP2;P2;SDS_P1;SDS_P2;PMS_P1;PMS_P2;Temp;Humidity;BMP_temperature;BMP_pressure;BME280_temperature;BME280_humidity;BME280_pressure;Samples;Min_cycle;Max_cycle;Signal;HPM_P1;HPM_P2
2023/05/04 00:01:52;;;;;;;11.50;6.30;;;12.30;63.00;;;11.58;50.39;101253.34;5060709;28;20128;-81
2023/05/04 00:04:19;;;;;;;14.85;6.50;;;12.30;63.40;;;11.57;50.23;101247.19;5045808;28;20037;-82
2023/05/04 00:06:47;;;;;;;13.23;6.40;;;12.30;63.40;;;11.55;50.29;101249.19;5056492;28;20064;-80
2023/05/04 00:09:15;;;;;;;14.48;6.55;;;12.20;63.30;;;11.50;50.45;101253.50;5039534;28;20094;-79
2023/05/04 00:11:42;;;;;;;11.23;6.63;;;12.20;63.40;;;11.47;50.39;101251.25;5051841;28;20040;-79
2023/05/04 00:14:09;;;;;;;14.57;6.97;;;12.20;63.40;;;11.44;50.45;101247.09;5049098;28;20045;-80
2023/05/04 00:16:38;;;;;;;13.82;6.35;;;12.10;63.60;;;11.41;50.56;101246.66;5036724;28;20413;-80
2023/05/04 00:19:05;;;;;;;13.35;6.25;;;12.10;63.60;;;11.37;50.64;101251.59;5058460;28;20106;-79
2023/05/04 00:21:32;;;;;;;13.25;6.57;;;12.10;63.70;;;11.34;50.52;101247.47;5053246;28;20531;-80
2023/05/04 00:24:00;;;;;;;17.65;6.85;;;12.00;63.70;;;11.30;50.99;101240.03;5055294;28;20082;-79
2023/05/04 00:26:28;;;;;;;12.20;6.03;;;12.00;64.20;;;11.25;51.19;101243.28;5057017;28;20077;-81
2023/05/04 00:28:55;;;;;;;12.60;6.80;;;11.90;64.30;;;11.19;51.18;101241.41;5051207;28;20055;-79
2023/05/04 00:31:22;;;;;;;11.25;6.47;;;11.90;64.50;;;11.14;51.35;101240.34;5036770;28;20056;-80
2023/05/04 00:33:51;;;;;;;12.07;6.90;;;11.90;64.70;;;11.09;51.61;101233.75;5050188;28;20490;-79
2023/05/04 00:36:18;;;;;;;10.60;6.35;;;11.80;65.00;;;11.06;51.76;101231.47;5036801;28;20517;-81
2023/05/04 00:38:49;;;;;;;13.15;6.82;;;11.80;65.20;;;11.00;52.09;101229.59;5062769;28;20585;-79
2023/05/04 00:41:20;;;;;;;10.88;6.80;;;11.70;65.60;;;10.94;52.17;101234.91;5049222;28;20049;-81
2023/05/04 00:43:48;;;;;;;12.10;6.93;;;11.70;65.90;;;10.88;52.44;101231.13;5025011;28;20099;-79
2023/05/04 00:46:16;;;;;;;9.95;6.18;;;11.60;66.00;;;10.82;52.48;101238.06;5031425;28;20059;-80
2023/05/04 00:48:48;;;;;;;15.38;7.30;;;11.50;66.10;;;10.76;52.54;101233.53;5030594;28;20076;-80
2023/05/04 00:51:19;;;;;;;10.55;6.93;;;11.50;66.20;;;10.71;52.69;101230.59;5038013;28;20139;-81
2023/05/04 00:53:47;;;;;;;13.57;7.05;;;11.40;66.30;;;10.69;52.92;101231.84;5058515;28;20033;-81
2023/05/04 00:56:16;;;;;;;15.57;7.15;;;11.40;66.60;;;10.64;52.77;101224.41;5031162;28;20425;-80
2023/05/04 00:58:43;;;;;;;11.55;6.63;;;11.30;66.70;;;10.61;52.85;101216.78;5021842;28;20044;-79
2023/05/04 01:01:10;;;;;;;13.93;7.18;;;11.30;66.90;;;10.56;52.95;101216.53;5026728;28;20586;-79
2023/05/04 01:03:38;;;;;;;12.27;7.10;;;11.20;67.00;;;10.52;52.93;101215.25;5013397;28;20129;-79
2023/05/04 01:06:24;;;;;;;13.32;7.00;;;11.20;67.00;;;10.49;53.14;101215.63;5041403;28;20621;-80
2023/05/04 01:08:59;;;;;;;11.57;6.60;;;11.10;67.00;;;10.46;53.06;101210.72;5050485;28;20055;-81
2023/05/04 01:11:33;;;;;;;16.45;7.00;;;11.10;67.30;;;10.42;53.26;101204.09;5026951;28;20052;-81
2023/05/04 01:14:03;;;;;;;13.98;7.45;;;11.10;67.60;;;10.39;53.59;101212.47;5049751;28;20048;-80
2023/05/04 01:16:30;;;;;;;14.50;6.75;;;11.00;67.70;;;10.36;53.69;101210.22;5031496;28;20136;-80
2023/05/04 01:18:57;;;;;;;14.80;6.97;;;11.00;67.90;;;10.30;53.93;101204.63;5032686;28;20144;-81
2023/05/04 01:21:32;;;;;;;14.07;7.07;;;11.00;68.20;;;10.28;54.14;101200.47;5055556;28;20068;-80
2023/05/04 01:23:59;;;;;;;11.27;6.80;;;10.90;68.50;;;10.24;54.25;101200.03;5052999;28;20044;-80
2023/05/04 01:26:32;;;;;;;12.45;7.40;;;10.90;68.80;;;10.21;54.46;101196.91;5050727;28;20128;-79
2023/05/04 01:29:08;;;;;;;13.30;7.07;;;10.90;68.90;;;10.18;54.22;101186.63;5055022;28;20044;-81
2023/05/04 01:31:38;;;;;;;12.65;7.03;;;10.80;68.90;;;10.14;54.28;101188.84;5021585;28;20516;-80
2023/05/04 01:34:08;;;;;;;10.23;6.80;;;10.80;69.10;;;10.11;54.46;101188.41;5054913;28;20119;-81
2023/05/04 01:36:37;;;;;;;11.90;6.90;;;10.70;69.10;;;10.06;54.58;101181.00;5035301;28;20075;-80
2023/05/04 01:39:05;;;;;;;12.55;7.30;;;10.70;69.30;;;10.04;54.71;101196.31;5037348;28;20750;-81
2023/05/04 01:41:33;;;;;;;14.82;7.60;;;10.70;69.30;;;10.00;54.71;101184.38;5058471;28;20041;-81
2023/05/04 01:44:00;;;;;;;13.45;7.03;;;10.60;69.30;;;9.97;54.75;101190.13;5057010;28;20064;-80
2023/05/04 01:46:28;;;;;;;14.70;7.60;;;10.60;69.30;;;9.93;54.70;101192.31;5031926;28;20063;-80
2023/05/04 01:48:55;;;;;;;14.05;7.00;;;10.60;69.50;;;9.91;54.81;101193.53;5046033;28;20072;-79
2023/05/04 01:51:22;;;;;;;10.27;7.00;;;10.50;69.70;;;9.89;54.91;101200.88;5039129;28;20064;-81
2023/05/04 01:53:52;;;;;;;13.05;7.13;;;10.50;69.70;;;9.84;55.06;101197.97;5055688;28;20041;-82
2023/05/04 01:56:19;;;;;;;13.50;7.53;;;10.50;69.90;;;9.83;55.27;101201.66;5043508;28;20236;-79
2023/05/04 01:58:46;;;;;;;13.50;7.47;;;10.50;70.30;;;9.80;55.19;101201.00;5034078;28;20045;-81
2023/05/04 02:01:14;;;;;;;13.00;7.25;;;10.40;70.10;;;9.78;55.27;101194.22;5049999;28;20072;-80
2023/05/04 02:03:41;;;;;;;14.82;7.47;;;10.40;70.30;;;9.76;55.31;101193.56;5031288;28;20041;-79
2023/05/04 02:06:10;;;;;;;12.52;7.40;;;10.30;70.20;;;9.74;55.26;101191.09;5029189;28;20118;-81
2023/05/04 02:08:38;;;;;;;13.30;7.32;;;10.40;70.30;;;9.73;55.43;101194.78;5045314;28;20481;-81
2023/05/04 02:11:06;;;;;;;11.75;6.88;;;10.30;70.70;;;9.71;55.47;101190.63;5026913;28;20524;-80
2023/05/04 02:13:35;;;;;;;15.55;7.72;;;10.30;70.80;;;9.69;55.71;101188.16;5038861;28;20045;-81
2023/05/04 02:16:02;;;;;;;16.63;7.07;;;10.30;70.80;;;9.68;55.54;101191.03;5054731;28;20064;-82
2023/05/04 02:18:29;;;;;;;12.73;6.40;;;10.30;70.80;;;9.66;55.62;101191.22;5050505;28;20114;-80
2023/05/04 02:20:57;;;;;;;11.35;6.65;;;10.30;71.10;;;9.64;55.67;101192.41;5038904;28;20075;-79
2023/05/04 02:23:24;;;;;;;10.52;6.80;;;10.40;71.10;;;9.63;55.62;101185.44;5047965;28;20477;-81
2023/05/04 02:25:52;;;;;;;10.82;7.30;;;10.20;70.90;;;9.61;56.06;101192.78;5057977;28;20041;-81
2023/05/04 02:28:20;;;;;;;20.45;8.48;;;10.20;71.20;;;9.57;56.12;101189.69;5037093;28;20126;-80
2023/05/04 02:30:47;;;;;;;13.75;7.50;;;10.20;71.30;;;9.54;56.13;101190.88;5052072;28;20087;-79
2023/05/04 02:33:15;;;;;;;14.25;7.75;;;10.20;71.40;;;9.52;56.21;101184.09;5036124;28;20140;-79
2023/05/04 02:35:42;;;;;;;14.10;7.40;;;10.10;71.50;;;9.50;56.23;101180.78;5046344;28;20045;-81
2023/05/04 02:38:09;;;;;;;11.77;7.22;;;10.10;71.60;;;9.51;56.34;101185.91;5031206;28;20163;-80
2023/05/04 02:40:36;;;;;;;13.07;7.20;;;10.10;71.70;;;9.51;56.30;101182.41;5027902;28;20136;-79
2023/05/04 02:43:03;;;;;;;14.27;8.02;;;10.20;71.80;;;9.47;56.35;101178.50;5036214;28;20036;-81
2023/05/04 02:45:32;;;;;;;12.05;7.55;;;10.10;71.80;;;9.46;56.45;101176.81;5043905;28;20072;-79
2023/05/04 02:47:59;;;;;;;15.82;7.88;;;10.10;71.90;;;9.44;56.56;101174.34;5071540;28;20068;-81
2023/05/04 02:50:26;;;;;;;12.00;7.47;;;10.10;72.10;;;9.43;56.60;101177.22;5037288;28;20552;-81
2023/05/04 02:52:53;;;;;;;13.50;7.75;;;10.00;71.90;;;9.41;56.52;101173.91;5023982;28;20568;-80
2023/05/04 02:55:21;;;;;;;12.25;7.88;;;10.00;72.10;;;9.39;56.60;101175.94;5052307;28;20056;-80
2023/05/04 02:57:48;;;;;;;13.57;8.00;;;10.00;72.10;;;9.39;56.61;101167.94;5042718;28;20125;-81
2023/05/04 03:00:16;;;;;;;13.52;7.80;;;10.00;72.20;;;9.37;56.63;101173.47;5040131;28;20501;-81
2023/05/04 03:02:45;;;;;;;10.90;8.10;;;10.00;72.20;;;9.37;56.77;101173.47;5056922;28;20049;-81
2023/05/04 03:05:15;;;;;;;13.50;8.35;;;9.90;72.50;;;9.35;56.72;101169.31;5067817;28;20053;-81
2023/05/04 03:07:42;;;;;;;14.48;7.55;;;9.90;72.30;;;9.34;56.61;101167.69;5069086;28;20052;-81
2023/05/04 03:10:10;;;;;;;16.08;8.68;;;10.00;72.20;;;9.33;56.83;101169.53;5040968;28;20069;-81
2023/05/04 03:12:38;;;;;;;13.50;7.28;;;10.00;72.30;;;9.32;56.64;101169.69;5056432;28;20040;-81
2023/05/04 03:15:06;;;;;;;14.60;8.10;;;9.90;72.30;;;9.32;56.69;101162.56;5042301;28;20129;-81
2023/05/04 03:17:34;;;;;;;14.63;7.53;;;9.90;72.30;;;9.32;56.78;101170.53;5041924;28;20481;-80
2023/05/04 03:20:04;;;;;;;16.50;9.02;;;9.90;72.30;;;9.33;56.66;101169.53;5040780;28;20055;-80
2023/05/04 03:22:32;;;;;;;15.55;8.35;;;10.00;72.30;;;9.34;56.72;101162.34;5045470;28;20409;-79
2023/05/04 03:25:00;;;;;;;15.90;8.50;;;9.90;72.60;;;9.34;57.01;101162.34;5028317;28;20496;-81
2023/05/04 03:27:27;;;;;;;20.65;8.77;;;9.90;72.70;;;9.31;56.89;101160.06;5030820;28;20053;-79
2023/05/04 03:29:54;;;;;;;15.23;8.73;;;9.90;72.50;;;9.31;56.97;101152.06;5030707;28;20049;-79
2023/05/04 03:32:23;;;;;;;15.90;8.75;;;9.90;72.60;;;9.31;56.94;101146.75;5034857;28;20412;-79
2023/05/04 03:34:50;;;;;;;13.65;8.23;;;9.90;72.80;;;9.31;56.96;101146.75;5040925;28;20056;-79
2023/05/04 03:37:20;;;;;;;16.08;9.07;;;10.00;72.70;;;9.31;56.81;101144.91;5056061;28;20049;-79
2023/05/04 03:39:47;;;;;;;14.73;8.48;;;10.10;72.90;;;9.31;56.97;101142.25;5032302;28;20554;-79
2023/05/04 03:42:15;;;;;;;14.52;8.05;;;9.90;72.90;;;9.28;57.33;101143.47;5042685;28;20510;-79
2023/05/04 03:44:42;;;;;;;14.43;7.80;;;9.90;73.00;;;9.26;57.37;101144.63;5029136;28;20128;-81
2023/05/04 03:47:09;;;;;;;14.02;8.15;;;9.90;73.00;;;9.23;57.39;101143.19;5028768;28;20096;-81
2023/05/04 03:49:37;;;;;;;14.25;7.75;;;9.90;73.00;;;9.20;57.42;101145.38;5037893;28;20044;-81
2023/05/04 03:52:04;;;;;;;11.32;7.85;;;9.80;73.00;;;9.18;57.20;101144.75;5040003;28;20045;-80
2023/05/04 03:54:33;;;;;;;16.25;7.72;;;9.80;73.00;;;9.14;57.33;101146.97;5040300;28;20124;-80
2023/05/04 03:57:00;;;;;;;18.17;8.68;;;9.80;73.00;;;9.14;57.44;101138.16;5037864;28;20044;-81
2023/05/04 03:59:27;;;;;;;13.68;7.65;;;9.80;73.10;;;9.13;57.44;101150.63;5023427;28;20481;-79
2023/05/04 04:01:55;;;;;;;14.77;8.45;;;9.70;73.30;;;9.11;57.25;101149.16;5024510;28;20068;-81
2023/05/04 04:04:22;;;;;;;13.50;8.40;;;9.70;73.20;;;9.09;57.46;101140.53;5049727;28;20033;-81
2023/05/04 04:06:49;;;;;;;13.80;7.80;;;9.70;73.30;;;9.08;57.53;101147.72;5032722;28;20064;-80
2023/05/04 04:09:16;;;;;;;13.32;8.20;;;9.70;73.30;;;9.06;57.58;101144.38;5031239;28;20759;-80
2023/05/04 04:11:46;;;;;;;15.02;8.88;;;9.70;73.50;;;9.05;57.71;101152.56;5053276;28;20457;-88
2023/05/04 04:14:13;;;;;;;12.35;7.32;;;9.70;73.60;;;9.02;57.61;101149.25;5031942;28;20041;-89
2023/05/04 04:16:40;;;;;;;12.00;7.85;;;9.60;73.50;;;9.00;57.90;101143.28;5022149;28;20500;-85
2023/05/04 04:19:07;;;;;;;15.85;8.55;;;9.60;73.70;;;8.99;57.81;101138.16;5043859;28;20080;-83
2023/05/04 04:21:35;;;;;;;15.38;8.48;;;9.60;73.70;;;8.99;57.74;101139.00;5036574;28;20130;-82
2023/05/04 04:24:02;;;;;;;13.43;7.80;;;9.60;73.90;;;9.01;58.01;101144.13;5058806;28;20057;-83
2023/05/04 04:26:29;;;;;;;14.80;8.50;;;9.60;74.20;;;9.01;58.09;101136.13;5052272;28;20113;-83
2023/05/04 04:28:57;;;;;;;15.07;8.05;;;9.60;74.10;;;9.01;58.21;101128.16;5052134;28;20049;-86
2023/05/04 04:31:25;;;;;;;15.18;7.85;;;9.60;74.30;;;9.00;58.46;101140.63;5059113;28;20064;-84
2023/05/04 04:33:52;;;;;;;19.88;8.23;;;9.60;74.40;;;9.01;58.56;101136.97;5048183;28;20047;-83
2023/05/04 04:36:19;;;;;;;11.20;7.78;;;9.60;74.70;;;9.00;58.46;101139.81;5054432;28;20679;-83
2023/05/04 04:38:47;;;;;;;16.67;8.43;;;9.60;74.70;;;9.00;58.69;101143.28;5034589;28;20141;-84
2023/05/04 04:41:15;;;;;;;14.63;7.75;;;9.70;74.80;;;9.00;58.72;101145.13;5057811;28;20045;-85
2023/05/04 04:43:42;;;;;;;11.82;7.68;;;9.60;75.00;;;9.00;58.72;101145.13;5055155;28;20064;-85
2023/05/04 04:46:11;;;;;;;14.25;7.80;;;9.60;75.00;;;8.99;58.95;101138.16;5030568;28;20057;-86
2023/05/04 04:48:38;;;;;;;16.52;8.32;;;9.60;75.10;;;9.00;58.98;101139.81;5049701;28;20509;-86
2023/05/04 04:51:11;;;;;;;14.65;9.07;;;9.60;75.00;;;9.03;59.20;101142.13;5034224;28;20130;-85
2023/05/04 04:53:38;;;;;;;15.50;8.45;;;9.60;75.30;;;9.07;59.15;101137.22;5045038;28;20445;-83
2023/05/04 04:56:08;;;;;;;12.25;7.93;;;9.70;75.80;;;9.09;59.23;101141.38;5049708;28;20048;-87
2023/05/04 04:58:35;;;;;;;15.38;7.75;;;9.70;75.80;;;9.12;59.40;101137.50;5048806;28;20074;-84
2023/05/04 05:01:04;;;;;;;15.07;8.23;;;9.70;75.80;;;9.14;59.38;101135.50;5060436;28;20044;-86
2023/05/04 05:03:32;;;;;;;14.88;8.20;;;9.80;75.80;;;9.16;59.63;101133.47;5046948;28;20066;-87
2023/05/04 05:06:01;;;;;;;11.88;8.07;;;9.80;75.80;;;9.17;59.49;101130.59;5045469;28;20049;-83
2023/05/04 05:08:28;;;;;;;14.90;8.95;;;9.80;75.70;;;9.21;59.61;101139.88;5037683;28;20512;-87
2023/05/04 05:10:56;;;;;;;13.70;8.27;;;9.90;76.00;;;9.28;59.94;101138.13;5063077;28;20045;-87
2023/05/04 05:13:23;;;;;;;13.52;7.95;;;9.90;76.10;;;9.35;59.88;101134.72;5049130;28;20038;-85
2023/05/04 05:15:50;;;;;;;17.08;8.93;;;10.20;76.10;;;9.43;59.64;101132.78;5040006;28;20131;-85
2023/05/04 05:18:18;;;;;;;15.40;10.13;;;10.10;75.80;;;9.54;59.42;101136.78;5035797;28;20101;-87
2023/05/04 05:23:15;;;;;;;18.15;9.00;;;10.20;76.10;;;9.73;59.71;101128.19;5009290;28;20042;-74
2023/05/04 05:25:44;;;;;;;14.20;8.88;;;10.30;76.20;;;9.85;59.77;101122.34;5002415;28;20046;-73
2023/05/04 05:28:13;;;;;;;15.50;8.27;;;10.40;76.30;;;9.98;59.46;101130.47;5014972;28;20073;-74
2023/05/04 05:30:40;;;;;;;14.10;8.02;;;10.60;76.00;;;10.13;59.07;101120.56;5009545;28;20069;-73
2023/05/04 05:33:07;;;;;;;14.48;8.68;;;10.70;75.70;;;10.29;58.92;101117.63;5018224;28;20053;-75
2023/05/04 05:35:34;;;;;;;11.10;7.47;;;10.80;75.80;;;10.45;58.37;101113.06;5026162;28;20049;-72
2023/05/04 05:38:02;;;;;;;16.27;8.45;;;11.00;74.90;;;10.61;58.13;101107.41;5030265;28;20512;-72
2023/05/04 05:40:30;;;;;;;13.35;8.50;;;11.10;74.70;;;10.75;57.45;101105.66;5036631;28;20499;-76
2023/05/04 05:42:58;;;;;;;14.25;7.85;;;11.30;73.90;;;10.90;56.80;101103.69;5026448;28;20116;-73
2023/05/04 05:45:25;;;;;;;11.98;7.70;;;11.40;73.10;;;11.03;56.51;101103.75;5019675;28;20062;-72
2023/05/04 05:47:52;;;;;;;19.42;7.75;;;11.50;72.80;;;11.16;56.47;101107.50;5036389;28;20472;-73
2023/05/04 05:50:20;;;;;;;18.27;7.75;;;11.70;72.70;;;11.25;56.31;101104.44;5028472;28;20080;-73
2023/05/04 05:52:47;;;;;;;18.30;8.23;;;11.80;72.40;;;11.32;55.85;101099.97;5032684;28;20583;-73
2023/05/04 05:55:15;;;;;;;17.38;7.78;;;11.90;72.00;;;11.43;56.28;101095.88;5037093;28;20125;-74
2023/05/04 05:57:43;;;;;;;13.48;7.80;;;12.00;72.50;;;11.52;56.05;101093.88;5030079;28;20375;-73
2023/05/04 06:00:12;;;;;;;14.73;8.02;;;12.10;72.10;;;11.59;55.59;101094.69;5030310;28;20128;-72
2023/05/04 06:02:40;;;;;;;16.85;8.27;;;12.20;71.50;;;11.66;56.01;101103.53;5032173;28;20144;-74
2023/05/04 06:05:09;;;;;;;15.48;8.00;;;12.30;71.80;;;11.72;55.49;101093.91;5031361;28;20052;-73
2023/05/04 06:07:36;;;;;;;13.52;8.00;;;12.30;71.30;;;11.80;55.57;101097.19;5026517;28;20111;-73
2023/05/04 06:10:04;;;;;;;17.27;7.78;;;12.40;71.10;;;11.84;55.26;101094.97;5027738;28;20069;-73
2023/05/04 06:12:31;;;;;;;12.07;7.43;;;12.40;70.90;;;11.89;55.41;101091.69;5029158;28;20103;-75
2023/05/04 06:15:00;;;;;;;16.75;7.85;;;12.50;71.10;;;11.92;55.40;101086.75;5027687;28;20049;-74
2023/05/04 06:17:27;;;;;;;12.50;7.43;;;12.50;70.90;;;11.95;54.80;101080.16;5018003;28;20064;-73
2023/05/04 06:19:54;;;;;;;20.00;8.02;;;12.60;70.20;;;11.97;54.25;101086.13;5031730;28;20041;-75
2023/05/04 06:22:22;;;;;;;10.73;7.07;;;12.60;69.50;;;12.00;54.03;101080.38;5042865;28;20041;-76
2023/05/04 06:24:49;;;;;;;14.57;7.72;;;12.60;69.50;;;12.06;54.20;101087.59;5051835;28;20040;-74
2023/05/04 06:27:16;;;;;;;16.70;7.60;;;12.70;69.50;;;12.11;53.59;101088.59;5053110;28;20053;-75
2023/05/04 06:29:44;;;;;;;14.23;7.28;;;12.70;68.80;;;12.19;53.52;101078.72;5057513;28;20068;-74
2023/05/04 06:32:12;;;;;;;15.77;7.43;;;12.80;68.70;;;12.26;53.46;101085.72;5054913;28;20051;-74
2023/05/04 06:34:39;;;;;;;21.73;7.57;;;12.90;68.80;;;12.35;54.35;101083.66;5048026;28;20033;-74
2023/05/04 06:37:07;;;;;;;11.38;7.00;;;12.90;69.90;;;12.41;53.60;101082.00;5056598;28;20425;-74
2023/05/04 06:39:34;;;;;;;14.02;7.28;;;13.00;69.00;;;12.46;53.78;101080.34;5082870;28;20418;-75
2023/05/04 06:42:02;;;;;;;14.93;6.55;;;13.10;69.00;;;12.55;53.80;101083.63;5050798;28;20045;-74
2023/05/04 06:44:38;;;;;;;11.65;6.35;;;13.20;69.10;;;12.67;53.52;101076.59;5066156;28;20048;-74
2023/05/04 06:47:06;;;;;;;14.48;6.70;;;13.30;68.80;;;12.75;53.29;101068.34;5064914;28;20047;-76
2023/05/04 06:49:35;;;;;;;14.88;6.47;;;13.40;68.20;;;12.84;53.50;101083.13;5043543;28;20044;-74
2023/05/04 06:52:02;;;;;;;14.85;6.80;;;13.50;68.10;;;12.93;52.64;101088.25;5049082;28;20049;-75
2023/05/04 06:54:30;;;;;;;13.30;6.68;;;13.60;67.20;;;13.02;52.88;101081.63;5041558;28;20045;-74
2023/05/04 06:56:57;;;;;;;13.18;6.47;;;13.70;67.50;;;13.11;52.12;101075.81;5043998;28;20048;-75
2023/05/04 06:59:25;;;;;;;18.00;6.85;;;13.80;66.50;;;13.18;51.59;101073.13;5051495;28;20566;-74
2023/05/04 07:01:52;;;;;;;17.10;6.35;;;13.80;66.00;;;13.28;51.75;101078.88;5050923;28;20047;-74
2023/05/04 07:04:22;;;;;;;13.75;5.90;;;13.90;66.40;;;13.43;51.58;101080.44;5050098;28;20073;-77
2023/05/04 07:06:51;;;;;;;9.25;5.60;;;14.10;66.10;;;13.56;50.71;101066.94;5051095;28;20037;-75
2023/05/04 07:09:19;;;;;;;11.68;6.00;;;14.20;65.00;;;13.70;50.67;101073.03;5050899;28;20055;-75
2023/05/04 07:11:47;;;;;;;13.07;5.30;;;14.30;64.80;;;13.78;49.85;101073.59;5050671;28;20052;-76
2023/05/04 07:14:15;;;;;;;9.82;5.25;;;14.40;63.60;;;13.85;50.05;101063.63;5048503;28;20037;-74
2023/05/04 07:16:42;;;;;;;10.38;5.40;;;14.50;64.10;;;13.99;50.38;101063.53;5051154;28;20115;-75
2023/05/04 07:19:09;;;;;;;13.55;5.85;;;14.70;64.30;;;14.05;50.14;101058.13;5050657;28;20210;-76
2023/05/04 07:21:37;;;;;;;13.20;5.50;;;14.80;63.90;;;14.17;50.10;101052.88;5050863;28;20125;-76
2023/05/04 07:24:06;;;;;;;13.90;5.38;;;14.90;64.00;;;14.27;49.32;101047.81;5055134;28;20083;-74
2023/05/04 07:26:34;;;;;;;11.20;5.60;;;15.00;62.90;;;14.36;49.27;101043.00;5067228;28;20505;-75
2023/05/04 07:29:01;;;;;;;13.55;4.95;;;15.10;63.00;;;14.48;48.58;101041.22;5049267;28;20120;-75
2023/05/04 07:31:29;;;;;;;9.15;5.22;;;15.20;62.00;;;14.56;48.43;101038.25;5045955;28;20138;-76
2023/05/04 07:33:56;;;;;;;13.35;5.30;;;15.30;61.40;;;14.65;48.50;101038.78;5050389;28;20045;-74
2023/05/04 07:36:25;;;;;;;16.05;4.93;;;15.40;61.70;;;14.79;48.93;101044.84;5054423;28;20076;-75
2023/05/04 07:38:52;;;;;;;10.15;4.80;;;15.50;62.00;;;14.88;48.37;101040.78;5054082;28;20127;-75
2023/05/04 07:41:21;;;;;;;10.93;5.18;;;15.60;61.60;;;14.98;49.62;101042.91;5050066;28;20056;-75
2023/05/04 07:43:48;;;;;;;10.32;4.45;;;15.70;62.70;;;15.08;48.60;101036.00;5049955;28;20072;-76
2023/05/04 07:46:16;;;;;;;10.43;5.13;;;15.80;61.50;;;15.16;48.57;101034.84;5056062;28;20041;-76
2023/05/04 07:48:43;;;;;;;12.23;5.00;;;15.90;61.60;;;15.24;47.41;101031.84;5043119;28;20168;-76
2023/05/04 07:51:13;;;;;;;11.27;4.47;;;16.00;59.90;;;15.32;47.17;101022.63;5041370;28;20127;-75
2023/05/04 07:53:42;;;;;;;12.45;4.53;;;16.00;59.50;;;15.38;46.89;101030.59;5047470;28;20040;-75
2023/05/04 07:56:11;;;;;;;12.00;4.45;;;16.10;59.20;;;15.44;47.21;101018.94;5049476;28;20049;-75
2023/05/04 07:58:40;;;;;;;8.30;4.55;;;16.20;59.60;;;15.49;46.89;101025.50;5054250;28;20045;-75
2023/05/04 08:01:07;;;;;;;9.05;4.68;;;16.30;59.40;;;15.59;46.86;101025.75;5049845;28;20102;-76
2023/05/04 08:03:34;;;;;;;8.65;3.83;;;16.40;59.00;;;15.73;46.94;101029.09;5047372;28;20060;-76
2023/05/04 08:06:02;;;;;;;12.40;4.72;;;16.50;59.10;;;15.83;47.18;101022.06;5048156;28;20045;-74
2023/05/04 08:08:29;;;;;;;9.73;4.43;;;16.60;59.50;;;15.91;46.71;101019.06;5049341;28;20076;-74
2023/05/04 08:10:56;;;;;;;8.95;4.03;;;16.70;58.50;;;16.00;46.56;101019.50;5049733;28;20047;-76
2023/05/04 08:13:24;;;;;;;17.08;4.35;;;16.80;58.40;;;16.02;46.02;101009.34;5051466;28;20045;-76
2023/05/04 08:15:52;;;;;;;15.38;4.55;;;16.80;57.90;;;16.12;46.07;101014.13;5048657;28;20029;-75
2023/05/04 08:18:19;;;;;;;11.10;4.07;;;16.90;57.70;;;16.17;45.80;101009.69;5040971;28;20045;-75
2023/05/04 08:20:47;;;;;;;11.18;4.05;;;17.00;57.50;;;16.21;45.69;101007.34;5044923;28;20116;-75
2023/05/04 08:23:14;;;;;;;10.20;3.90;;;17.00;57.30;;;16.24;45.96;101006.84;5050378;28;20086;-75
2023/05/04 08:25:41;;;;;;;8.25;4.00;;;17.00;57.60;;;16.28;46.77;101001.84;5046703;28;20033;-75
2023/05/04 08:28:08;;;;;;;10.60;4.13;;;17.10;58.70;;;16.32;45.18;101003.81;5049986;28;20136;-76
2023/05/04 08:30:36;;;;;;;8.10;3.80;;;17.10;56.50;;;16.41;46.41;101001.59;5049277;28;20072;-74
2023/05/04 08:33:06;;;;;;;9.88;4.10;;;17.20;58.10;;;16.52;45.23;100997.22;5046316;28;20051;-77
2023/05/04 08:35:33;;;;;;;9.40;4.10;;;17.30;56.40;;;16.60;46.15;100988.78;5050355;28;20037;-75
2023/05/04 08:38:01;;;;;;;9.85;3.85;;;17.40;57.80;;;16.63;45.38;100982.91;5049054;28;20048;-75
2023/05/04 08:40:28;;;;;;;8.02;3.78;;;17.40;56.50;;;16.68;45.14;100983.00;5039497;28;20377;-75
2023/05/04 08:42:56;;;;;;;6.97;3.55;;;17.50;56.50;;;16.74;44.58;100982.13;5053885;28;20064;-75
2023/05/04 08:45:24;;;;;;;15.90;3.72;;;17.50;56.30;;;16.75;45.28;100975.66;5049530;28;20071;-76
2023/05/04 08:47:52;;;;;;;10.32;3.33;;;17.60;56.70;;;16.84;45.17;100973.41;5048642;28;20045;-75
2023/05/04 08:50:21;;;;;;;8.15;3.63;;;17.70;56.50;;;16.87;43.93;100976.41;5051345;28;20036;-76
2023/05/04 08:52:48;;;;;;;10.77;4.05;;;17.70;55.30;;;16.89;45.63;100976.19;5048630;28;20049;-74
2023/05/04 08:55:17;;;;;;;9.75;3.70;;;17.70;57.10;;;17.03;45.33;100974.84;5047306;28;20116;-76
2023/05/04 08:57:45;;;;;;;6.22;3.58;;;17.80;56.50;;;17.11;44.58;100974.44;5043631;28;20184;-76
2023/05/04 09:00:16;;;;;;;7.82;3.70;;;17.90;56.10;;;17.22;45.98;100978.13;5052101;28;20469;-75
2023/05/04 09:02:44;;;;;;;15.38;4.00;;;18.00;57.50;;;17.23;44.02;100971.69;5048393;28;20115;-75
2023/05/04 09:05:11;;;;;;;7.10;3.70;;;18.10;55.40;;;17.34;43.92;100968.13;5049834;28;20037;-75
2023/05/04 09:07:40;;;;;;;8.10;3.70;;;18.10;55.40;;;17.38;42.88;100971.97;5053287;28;20037;-76
2023/05/04 09:10:09;;;;;;;8.10;3.92;;;18.20;54.00;;;17.39;42.50;100959.28;5052228;28;20128;-76
2023/05/04 09:12:37;;;;;;;6.63;3.63;;;18.20;53.50;;;17.48;42.32;100957.84;5040979;28;20043;-75
2023/05/04 09:15:16;;;;;;;7.65;3.70;;;18.30;53.40;;;17.54;46.95;100966.81;5049252;28;20045;-76
2023/05/04 09:17:43;;;;;;;9.50;3.58;;;18.30;58.70;;;17.77;45.29;100964.00;5044877;28;20049;-77
2023/05/04 09:20:12;;;;;;;8.18;4.03;;;18.60;56.80;;;17.86;42.42;100954.41;5049108;28;20094;-74
2023/05/04 09:22:42;;;;;;;7.68;4.53;;;18.60;53.20;;;17.84;41.47;100951.13;5047600;28;20052;-77
2023/05/04 09:25:12;;;;;;;7.45;4.70;;;18.70;52.20;;;17.84;41.69;100953.00;5054075;28;20504;-76
2023/05/04 09:27:41;;;;;;;10.68;4.57;;;18.70;52.40;;;17.87;42.28;100957.94;5047873;28;20045;-76
2023/05/04 09:30:10;;;;;;;7.32;4.22;;;18.70;53.00;;;17.99;42.49;100959.44;5039243;28;20517;-75
2023/05/04 09:32:45;;;;;;;11.50;5.35;;;18.80;53.20;;;18.07;42.13;100954.69;5047871;28;20063;-75
2023/05/04 09:35:12;;;;;;;7.78;4.03;;;18.90;52.90;;;18.13;41.99;100946.41;5054273;28;20029;-75
2023/05/04 09:37:45;;;;;;;8.43;4.47;;;19.00;52.60;;;18.21;41.70;100939.78;5052615;28;20053;-76
2023/05/04 09:40:14;;;;;;;7.40;4.28;;;19.00;52.20;;;18.40;43.43;100933.00;5048406;28;20148;-77
2023/05/04 09:42:42;;;;;;;7.20;4.15;;;19.20;54.00;;;18.53;42.76;100934.47;5051328;28;20114;-76
2023/05/04 09:45:11;;;;;;;11.57;4.55;;;19.40;53.60;;;18.58;40.94;100920.22;5047469;28;20058;-76
2023/05/04 09:47:40;;;;;;;7.43;4.28;;;19.40;51.20;;;18.59;41.42;100922.66;5045342;28;20049;-75
2023/05/04 09:50:16;;;;;;;8.48;4.10;;;19.40;52.10;;;18.64;42.59;100914.63;5044605;28;20048;-74
2023/05/04 09:52:46;;;;;;;9.93;4.55;;;19.50;53.20;;;18.82;40.90;100913.47;5047005;28;20056;-74
2023/05/04 09:55:15;;;;;;;8.60;3.77;;;19.60;51.10;;;18.89;41.74;100918.69;5048872;28;20037;-75
2023/05/04 09:57:44;;;;;;;10.43;3.83;;;19.60;52.10;;;18.91;40.88;100916.53;5047741;28;20053;-74
2023/05/04 10:00:15;;;;;;;8.25;4.70;;;19.70;51.00;;;18.94;42.18;100914.16;5047652;28;20123;-74
2023/05/04 10:02:43;;;;;;;8.23;4.27;;;19.80;52.30;;;18.92;41.50;100910.88;5046833;28;20071;-75
2023/05/04 10:05:16;;;;;;;40.42;5.78;;;19.80;51.90;;;18.99;43.18;100908.00;5051640;28;20065;-76
2023/05/04 10:07:45;;;;;;;32.65;5.93;;;19.80;53.60;;;19.09;40.84;100896.44;5051133;28;20159;-77
2023/05/04 10:10:15;;;;;;;22.52;5.32;;;20.00;50.60;;;19.15;40.36;100906.22;5046627;28;20068;-76
2023/05/04 10:12:44;;;;;;;14.23;4.32;;;20.00;50.10;;;19.25;41.21;100895.50;5043683;28;20120;-75
2023/05/04 10:15:14;;;;;;;11.05;4.40;;;20.00;51.30;;;19.21;39.65;100889.78;5047824;28;20172;-76
2023/05/04 10:17:58;;;;;;;10.20;4.35;;;20.10;49.60;;;19.11;39.89;100894.28;5057754;28;20048;-75